sensor_id;sensor_type;location;lat;lon;timestamp;P1;durP1;ratioP1;P2;durP2;ratioP2
17858;SDS011;35426;30.698;104.050;2024-02-26T00:01:38;102.83;;;49.30;;
17858;SDS011;35426;30.698;104.050;2024-02-26T00:04:14;96.50;;;48.47;;
17858;SDS011;35426;30.698;104.050;2024-02-26T00:06:50;96.10;;;47.20;;
17858;SDS011;35426;30.698;104.050;2024-02-26T00:09:24;93.83;;;46.23;;
17858;SDS011;35426;30.698;104.050;2024-02-26T00:11:58;98.43;;;48.70;;
17858;SDS011;35426;30.698;104.050;2024-02-26T00:14:35;95.93;;;47.47;;
17858;SDS011;35426;30.698;104.050;2024-02-26T00:17:11;96.47;;;47.57;;
17858;SDS011;35426;30.698;104.050;2024-02-26T00:19:46;108.50;;;52.97;;
17858;SDS011;35426;30.698;104.050;2024-02-26T00:22:21;113.43;;;53.07;;
17858;SDS011;35426;30.698;104.050;2024-02-26T00:24:55;101.37;;;49.57;;
17858;SDS011;35426;30.698;104.050;2024-02-26T00:27:28;102.03;;;51.17;;
17858;SDS011;35426;30.698;104.050;2024-02-26T00:30:02;108.00;;;51.17;;
17858;SDS011;35426;30.698;104.050;2024-02-26T00:32:36;99.40;;;51.27;;
17858;SDS011;35426;30.698;104.050;2024-02-26T00:35:11;109.57;;;52.80;;
17858;SDS011;35426;30.698;104.050;2024-02-26T00:37:56;116.23;;;55.63;;
17858;SDS011;35426;30.698;104.050;2024-02-26T00:40:33;115.60;;;54.03;;
17858;SDS011;35426;30.698;104.050;2024-02-26T00:43:06;107.77;;;52.83;;
17858;SDS011;35426;30.698;104.050;2024-02-26T00:45:40;109.03;;;54.40;;
17858;SDS011;35426;30.698;104.050;2024-02-26T00:48:16;102.90;;;52.27;;
17858;SDS011;35426;30.698;104.050;2024-02-26T00:50:50;105.97;;;50.13;;
17858;SDS011;35426;30.698;104.050;2024-02-26T00:53:25;104.13;;;51.73;;
17858;SDS011;35426;30.698;104.050;2024-02-26T00:55:59;106.43;;;50.87;;
17858;SDS011;35426;30.698;104.050;2024-02-26T00:58:32;101.57;;;51.50;;
17858;SDS011;35426;30.698;104.050;2024-02-26T01:01:06;105.40;;;52.07;;
17858;SDS011;35426;30.698;104.050;2024-02-26T01:03:40;105.60;;;50.33;;
17858;SDS011;35426;30.698;104.050;2024-02-26T01:06:13;103.83;;;50.30;;
17858;SDS011;35426;30.698;104.050;2024-02-26T01:08:49;98.27;;;49.60;;
17858;SDS011;35426;30.698;104.050;2024-02-26T01:11:27;96.97;;;47.87;;
17858;SDS011;35426;30.698;104.050;2024-02-26T01:14:01;91.33;;;46.50;;
17858;SDS011;35426;30.698;104.050;2024-02-26T01:16:35;96.90;;;48.57;;
17858;SDS011;35426;30.698;104.050;2024-02-26T01:19:09;100.07;;;50.87;;
17858;SDS011;35426;30.698;104.050;2024-02-26T01:21:43;108.83;;;52.97;;
17858;SDS011;35426;30.698;104.050;2024-02-26T01:24:19;106.93;;;51.57;;
17858;SDS011;35426;30.698;104.050;2024-02-26T01:26:52;114.83;;;52.93;;
17858;SDS011;35426;30.698;104.050;2024-02-26T01:29:25;106.27;;;54.27;;
17858;SDS011;35426;30.698;104.050;2024-02-26T01:31:59;111.73;;;52.13;;
17858;SDS011;35426;30.698;104.050;2024-02-26T01:34:34;105.43;;;50.70;;
17858;SDS011;35426;30.698;104.050;2024-02-26T01:37:10;103.30;;;50.50;;
17858;SDS011;35426;30.698;104.050;2024-02-26T01:39:46;105.23;;;51.77;;
17858;SDS011;35426;30.698;104.050;2024-02-26T01:42:20;110.10;;;55.17;;
17858;SDS011;35426;30.698;104.050;2024-02-26T01:44:55;107.97;;;53.77;;
17858;SDS011;35426;30.698;104.050;2024-02-26T01:47:29;115.27;;;56.90;;
17858;SDS011;35426;30.698;104.050;2024-02-26T01:50:02;101.07;;;52.20;;
17858;SDS011;35426;30.698;104.050;2024-02-26T01:52:38;96.97;;;50.33;;
17858;SDS011;35426;30.698;104.050;2024-02-26T01:55:13;105.53;;;53.77;;
17858;SDS011;35426;30.698;104.050;2024-02-26T01:57:48;113.77;;;56.07;;
17858;SDS011;35426;30.698;104.050;2024-02-26T02:00:22;117.73;;;58.43;;
17858;SDS011;35426;30.698;104.050;2024-02-26T02:02:56;110.77;;;57.30;;
17858;SDS011;35426;30.698;104.050;2024-02-26T02:05:31;109.67;;;55.77;;
17858;SDS011;35426;30.698;104.050;2024-02-26T02:08:13;108.47;;;54.00;;
17858;SDS011;35426;30.698;104.050;2024-02-26T02:10:51;94.60;;;49.63;;
17858;SDS011;35426;30.698;104.050;2024-02-26T02:13:24;105.53;;;53.07;;
17858;SDS011;35426;30.698;104.050;2024-02-26T02:15:58;101.00;;;51.50;;
17858;SDS011;35426;30.698;104.050;2024-02-26T02:18:32;91.33;;;48.73;;
17858;SDS011;35426;30.698;104.050;2024-02-26T02:21:07;88.90;;;48.20;;
17858;SDS011;35426;30.698;104.050;2024-02-26T02:23:41;91.80;;;48.27;;
17858;SDS011;35426;30.698;104.050;2024-02-26T02:26:15;90.67;;;48.17;;
17858;SDS011;35426;30.698;104.050;2024-02-26T02:28:49;103.87;;;53.33;;
17858;SDS011;35426;30.698;104.050;2024-02-26T02:31:23;100.23;;;54.33;;
17858;SDS011;35426;30.698;104.050;2024-02-26T02:33:57;100.03;;;52.13;;
17858;SDS011;35426;30.698;104.050;2024-02-26T02:36:47;101.83;;;54.27;;
17858;SDS011;35426;30.698;104.050;2024-02-26T02:39:21;101.53;;;53.93;;
17858;SDS011;35426;30.698;104.050;2024-02-26T02:41:55;110.33;;;56.00;;
17858;SDS011;35426;30.698;104.050;2024-02-26T02:44:30;107.23;;;56.43;;
17858;SDS011;35426;30.698;104.050;2024-02-26T02:47:03;97.63;;;52.60;;
17858;SDS011;35426;30.698;104.050;2024-02-26T02:49:36;114.03;;;53.27;;
17858;SDS011;35426;30.698;104.050;2024-02-26T02:52:13;105.40;;;55.87;;
17858;SDS011;35426;30.698;104.050;2024-02-26T02:54:47;106.43;;;54.27;;
17858;SDS011;35426;30.698;104.050;2024-02-26T02:57:20;107.30;;;54.33;;
17858;SDS011;35426;30.698;104.050;2024-02-26T02:59:54;105.93;;;54.17;;
17858;SDS011;35426;30.698;104.050;2024-02-26T03:02:28;97.63;;;52.93;;
17858;SDS011;35426;30.698;104.050;2024-02-26T03:05:05;96.13;;;52.83;;
17858;SDS011;35426;30.698;104.050;2024-02-26T03:07:43;95.77;;;52.97;;
17858;SDS011;35426;30.698;104.050;2024-02-26T03:10:17;106.53;;;54.77;;
17858;SDS011;35426;30.698;104.050;2024-02-26T03:12:50;116.40;;;58.13;;
17858;SDS011;35426;30.698;104.050;2024-02-26T03:15:24;103.93;;;55.63;;
17858;SDS011;35426;30.698;104.050;2024-02-26T03:17:57;110.80;;;55.97;;
17858;SDS011;35426;30.698;104.050;2024-02-26T03:20:31;114.83;;;58.67;;
17858;SDS011;35426;30.698;104.050;2024-02-26T03:23:06;113.80;;;58.93;;
17858;SDS011;35426;30.698;104.050;2024-02-26T03:25:42;112.20;;;56.47;;
17858;SDS011;35426;30.698;104.050;2024-02-26T03:28:18;116.57;;;56.87;;
17858;SDS011;35426;30.698;104.050;2024-02-26T03:30:52;110.07;;;56.77;;
17858;SDS011;35426;30.698;104.050;2024-02-26T03:33:26;112.57;;;55.97;;
17858;SDS011;35426;30.698;104.050;2024-02-26T03:35:59;110.83;;;56.47;;
17858;SDS011;35426;30.698;104.050;2024-02-26T03:38:36;109.10;;;56.90;;
17858;SDS011;35426;30.698;104.050;2024-02-26T03:41:10;109.37;;;56.20;;
17858;SDS011;35426;30.698;104.050;2024-02-26T03:43:44;106.53;;;54.80;;
17858;SDS011;35426;30.698;104.050;2024-02-26T03:46:18;95.97;;;50.53;;
17858;SDS011;35426;30.698;104.050;2024-02-26T03:48:52;99.67;;;49.30;;
17858;SDS011;35426;30.698;104.050;2024-02-26T03:51:25;106.37;;;52.27;;
17858;SDS011;35426;30.698;104.050;2024-02-26T03:54:03;100.87;;;53.43;;
17858;SDS011;35426;30.698;104.050;2024-02-26T03:56:37;104.30;;;56.33;;
17858;SDS011;35426;30.698;104.050;2024-02-26T03:59:11;93.40;;;50.20;;
17858;SDS011;35426;30.698;104.050;2024-02-26T04:01:46;94.80;;;50.03;;
17858;SDS011;35426;30.698;104.050;2024-02-26T04:04:21;94.93;;;49.70;;
17858;SDS011;35426;30.698;104.050;2024-02-26T04:06:55;90.13;;;48.40;;
17858;SDS011;35426;30.698;104.050;2024-02-26T04:09:30;103.03;;;52.93;;
17858;SDS011;35426;30.698;104.050;2024-02-26T04:12:04;96.90;;;53.80;;
17858;SDS011;35426;30.698;104.050;2024-02-26T04:14:39;100.73;;;53.50;;
17858;SDS011;35426;30.698;104.050;2024-02-26T04:17:15;87.77;;;49.57;;
17858;SDS011;35426;30.698;104.050;2024-02-26T04:19:48;91.33;;;50.30;;
17858;SDS011;35426;30.698;104.050;2024-02-26T04:22:21;99.27;;;51.90;;
17858;SDS011;35426;30.698;104.050;2024-02-26T04:24:58;111.90;;;55.90;;
17858;SDS011;35426;30.698;104.050;2024-02-26T04:27:32;107.07;;;54.80;;
17858;SDS011;35426;30.698;104.050;2024-02-26T04:30:06;98.17;;;50.97;;
17858;SDS011;35426;30.698;104.050;2024-02-26T04:32:40;101.77;;;50.73;;
17858;SDS011;35426;30.698;104.050;2024-02-26T04:35:15;94.23;;;50.23;;
17858;SDS011;35426;30.698;104.050;2024-02-26T04:37:49;97.20;;;49.57;;
17858;SDS011;35426;30.698;104.050;2024-02-26T04:40:26;95.30;;;50.57;;
17858;SDS011;35426;30.698;104.050;2024-02-26T04:42:59;95.90;;;50.70;;
17858;SDS011;35426;30.698;104.050;2024-02-26T04:45:33;93.90;;;50.47;;
17858;SDS011;35426;30.698;104.050;2024-02-26T04:48:06;99.77;;;52.83;;
17858;SDS011;35426;30.698;104.050;2024-02-26T04:50:40;96.03;;;51.40;;
17858;SDS011;35426;30.698;104.050;2024-02-26T04:53:14;95.73;;;51.33;;
17858;SDS011;35426;30.698;104.050;2024-02-26T04:55:50;101.17;;;52.43;;
17858;SDS011;35426;30.698;104.050;2024-02-26T04:58:27;97.00;;;52.00;;
17858;SDS011;35426;30.698;104.050;2024-02-26T05:01:00;104.20;;;51.80;;
17858;SDS011;35426;30.698;104.050;2024-02-26T05:03:34;100.20;;;51.37;;
17858;SDS011;35426;30.698;104.050;2024-02-26T05:06:08;103.77;;;52.20;;
17858;SDS011;35426;30.698;104.050;2024-02-26T05:08:41;101.37;;;52.40;;
17858;SDS011;35426;30.698;104.050;2024-02-26T05:11:19;102.20;;;52.97;;
17858;SDS011;35426;30.698;104.050;2024-02-26T05:13:52;96.90;;;51.33;;
17858;SDS011;35426;30.698;104.050;2024-02-26T05:16:26;95.10;;;49.30;;
17858;SDS011;35426;30.698;104.050;2024-02-26T05:19:01;102.77;;;53.07;;
17858;SDS011;35426;30.698;104.050;2024-02-26T05:21:36;101.73;;;51.67;;
17858;SDS011;35426;30.698;104.050;2024-02-26T05:24:09;104.57;;;52.73;;
17858;SDS011;35426;30.698;104.050;2024-02-26T05:26:51;95.40;;;49.67;;
17858;SDS011;35426;30.698;104.050;2024-02-26T05:29:29;86.63;;;46.37;;
17858;SDS011;35426;30.698;104.050;2024-02-26T05:32:03;87.67;;;45.53;;
17858;SDS011;35426;30.698;104.050;2024-02-26T05:34:37;92.83;;;47.43;;
17858;SDS011;35426;30.698;104.050;2024-02-26T05:37:11;77.23;;;43.77;;
17858;SDS011;35426;30.698;104.050;2024-02-26T05:39:45;84.90;;;46.33;;
17858;SDS011;35426;30.698;104.050;2024-02-26T05:42:19;95.67;;;49.87;;
17858;SDS011;35426;30.698;104.050;2024-02-26T05:44:53;98.27;;;50.10;;
17858;SDS011;35426;30.698;104.050;2024-02-26T05:47:27;97.57;;;50.47;;
17858;SDS011;35426;30.698;104.050;2024-02-26T05:50:01;97.93;;;50.50;;
17858;SDS011;35426;30.698;104.050;2024-02-26T05:52:35;93.83;;;50.30;;
17858;SDS011;35426;30.698;104.050;2024-02-26T05:55:11;100.33;;;52.87;;
17858;SDS011;35426;30.698;104.050;2024-02-26T05:57:46;93.07;;;52.57;;
17858;SDS011;35426;30.698;104.050;2024-02-26T06:00:21;95.57;;;51.40;;
17858;SDS011;35426;30.698;104.050;2024-02-26T06:02:54;102.83;;;53.33;;
17858;SDS011;35426;30.698;104.050;2024-02-26T06:05:28;99.07;;;49.30;;
17858;SDS011;35426;30.698;104.050;2024-02-26T06:08:01;98.20;;;51.97;;
17858;SDS011;35426;30.698;104.050;2024-02-26T06:10:36;93.80;;;51.97;;
17858;SDS011;35426;30.698;104.050;2024-02-26T06:13:12;100.27;;;52.77;;
17858;SDS011;35426;30.698;104.050;2024-02-26T06:15:45;102.10;;;53.90;;
17858;SDS011;35426;30.698;104.050;2024-02-26T06:18:19;99.27;;;51.43;;
17858;SDS011;35426;30.698;104.050;2024-02-26T06:20:53;100.63;;;51.60;;
17858;SDS011;35426;30.698;104.050;2024-02-26T06:23:32;102.17;;;52.90;;
17858;SDS011;35426;30.698;104.050;2024-02-26T06:26:06;105.63;;;51.20;;
17858;SDS011;35426;30.698;104.050;2024-02-26T06:28:44;102.87;;;54.20;;
17858;SDS011;35426;30.698;104.050;2024-02-26T06:31:17;100.70;;;53.30;;
17858;SDS011;35426;30.698;104.050;2024-02-26T06:33:51;103.07;;;53.80;;
17858;SDS011;35426;30.698;104.050;2024-02-26T06:36:25;104.83;;;53.40;;
17858;SDS011;35426;30.698;104.050;2024-02-26T06:38:58;103.30;;;53.10;;
17858;SDS011;35426;30.698;104.050;2024-02-26T06:41:32;96.93;;;51.80;;
17858;SDS011;35426;30.698;104.050;2024-02-26T06:44:09;110.83;;;54.07;;
17858;SDS011;35426;30.698;104.050;2024-02-26T06:46:43;101.57;;;52.43;;
17858;SDS011;35426;30.698;104.050;2024-02-26T06:49:16;105.73;;;52.80;;
17858;SDS011;35426;30.698;104.050;2024-02-26T06:51:50;99.87;;;50.97;;
17858;SDS011;35426;30.698;104.050;2024-02-26T06:54:24;96.87;;;50.53;;
17858;SDS011;35426;30.698;104.050;2024-02-26T06:56:58;93.53;;;49.50;;
17858;SDS011;35426;30.698;104.050;2024-02-26T06:59:33;93.43;;;50.17;;
17858;SDS011;35426;30.698;104.050;2024-02-26T07:02:09;96.20;;;50.17;;
17858;SDS011;35426;30.698;104.050;2024-02-26T07:04:43;88.50;;;48.93;;
17858;SDS011;35426;30.698;104.050;2024-02-26T07:07:17;94.27;;;49.10;;
17858;SDS011;35426;30.698;104.050;2024-02-26T07:09:52;91.10;;;47.47;;
17858;SDS011;35426;30.698;104.050;2024-02-26T07:12:25;83.97;;;46.23;;
17858;SDS011;35426;30.698;104.050;2024-02-26T07:15:02;88.10;;;47.43;;
17858;SDS011;35426;30.698;104.050;2024-02-26T07:17:37;88.30;;;48.50;;
17858;SDS011;35426;30.698;104.050;2024-02-26T07:20:19;92.13;;;49.33;;
17858;SDS011;35426;30.698;104.050;2024-02-26T07:22:54;91.13;;;48.53;;
17858;SDS011;35426;30.698;104.050;2024-02-26T07:25:29;90.73;;;47.63;;
17858;SDS011;35426;30.698;104.050;2024-02-26T07:28:03;84.87;;;45.77;;
17858;SDS011;35426;30.698;104.050;2024-02-26T07:30:39;86.43;;;45.43;;
17858;SDS011;35426;30.698;104.050;2024-02-26T07:33:12;89.10;;;44.67;;
17858;SDS011;35426;30.698;104.050;2024-02-26T07:35:46;84.03;;;45.70;;
17858;SDS011;35426;30.698;104.050;2024-02-26T07:38:20;78.13;;;44.47;;
17858;SDS011;35426;30.698;104.050;2024-02-26T07:41:09;79.53;;;43.73;;
17858;SDS011;35426;30.698;104.050;2024-02-26T07:43:47;72.27;;;41.70;;
17858;SDS011;35426;30.698;104.050;2024-02-26T07:46:24;75.87;;;43.73;;
17858;SDS011;35426;30.698;104.050;2024-02-26T07:48:57;83.80;;;44.90;;
17858;SDS011;35426;30.698;104.050;2024-02-26T07:51:32;86.43;;;46.63;;
17858;SDS011;35426;30.698;104.050;2024-02-26T07:54:05;88.30;;;48.67;;
17858;SDS011;35426;30.698;104.050;2024-02-26T07:56:38;89.97;;;45.93;;
17858;SDS011;35426;30.698;104.050;2024-02-26T07:59:12;83.87;;;44.80;;
17858;SDS011;35426;30.698;104.050;2024-02-26T08:01:51;97.10;;;50.57;;
17858;SDS011;35426;30.698;104.050;2024-02-26T08:04:26;92.60;;;48.00;;
17858;SDS011;35426;30.698;104.050;2024-02-26T08:07:01;88.87;;;46.60;;
17858;SDS011;35426;30.698;104.050;2024-02-26T08:09:36;94.40;;;47.53;;
17858;SDS011;35426;30.698;104.050;2024-02-26T08:12:11;83.40;;;46.37;;
17858;SDS011;35426;30.698;104.050;2024-02-26T08:14:44;84.97;;;45.50;;
17858;SDS011;35426;30.698;104.050;2024-02-26T08:17:23;89.10;;;46.40;;
17858;SDS011;35426;30.698;104.050;2024-02-26T08:19:56;78.10;;;44.70;;
17858;SDS011;35426;30.698;104.050;2024-02-26T08:22:31;82.67;;;43.57;;
17858;SDS011;35426;30.698;104.050;2024-02-26T08:25:05;79.50;;;42.63;;
17858;SDS011;35426;30.698;104.050;2024-02-26T08:27:39;71.53;;;41.33;;
17858;SDS011;35426;30.698;104.050;2024-02-26T08:30:13;83.60;;;43.30;;
17858;SDS011;35426;30.698;104.050;2024-02-26T08:32:49;75.03;;;41.40;;
17858;SDS011;35426;30.698;104.050;2024-02-26T08:35:22;77.97;;;43.63;;
17858;SDS011;35426;30.698;104.050;2024-02-26T08:38:01;91.37;;;46.23;;
17858;SDS011;35426;30.698;104.050;2024-02-26T08:40:36;87.63;;;46.90;;
17858;SDS011;35426;30.698;104.050;2024-02-26T08:43:10;86.83;;;46.50;;
17858;SDS011;35426;30.698;104.050;2024-02-26T08:45:43;88.57;;;47.83;;
17858;SDS011;35426;30.698;104.050;2024-02-26T08:48:19;92.47;;;47.60;;
17858;SDS011;35426;30.698;104.050;2024-02-26T08:50:54;96.27;;;46.87;;
17858;SDS011;35426;30.698;104.050;2024-02-26T08:53:27;88.30;;;47.00;;
17858;SDS011;35426;30.698;104.050;2024-02-26T08:56:09;89.67;;;47.23;;
17858;SDS011;35426;30.698;104.050;2024-02-26T08:58:46;90.03;;;45.77;;
17858;SDS011;35426;30.698;104.050;2024-02-26T09:01:22;88.47;;;45.73;;
17858;SDS011;35426;30.698;104.050;2024-02-26T09:03:59;84.87;;;46.10;;
17858;SDS011;35426;30.698;104.050;2024-02-26T09:06:34;86.30;;;45.63;;
17858;SDS011;35426;30.698;104.050;2024-02-26T09:09:07;81.40;;;43.43;;
17858;SDS011;35426;30.698;104.050;2024-02-26T09:11:41;91.00;;;46.17;;
17858;SDS011;35426;30.698;104.050;2024-02-26T09:14:15;86.43;;;45.50;;
17858;SDS011;35426;30.698;104.050;2024-02-26T09:16:55;94.80;;;47.73;;
17858;SDS011;35426;30.698;104.050;2024-02-26T09:19:30;98.50;;;47.00;;
17858;SDS011;35426;30.698;104.050;2024-02-26T09:22:03;95.77;;;49.13;;
17858;SDS011;35426;30.698;104.050;2024-02-26T09:24:38;89.87;;;47.07;;
17858;SDS011;35426;30.698;104.050;2024-02-26T09:27:12;77.87;;;42.30;;
17858;SDS011;35426;30.698;104.050;2024-02-26T09:29:48;91.37;;;48.17;;
17858;SDS011;35426;30.698;104.050;2024-02-26T09:32:51;83.67;;;42.90;;
17858;SDS011;35426;30.698;104.050;2024-02-26T09:35:59;74.80;;;40.27;;
17858;SDS011;35426;30.698;104.050;2024-02-26T09:38:32;80.03;;;42.60;;
17858;SDS011;35426;30.698;104.050;2024-02-26T09:41:23;78.90;;;44.03;;
17858;SDS011;35426;30.698;104.050;2024-02-26T09:43:56;86.80;;;44.20;;
17858;SDS011;35426;30.698;104.050;2024-02-26T09:46:31;80.13;;;43.27;;
17858;SDS011;35426;30.698;104.050;2024-02-26T09:49:04;83.17;;;41.57;;
17858;SDS011;35426;30.698;104.050;2024-02-26T09:51:41;78.57;;;41.70;;
17858;SDS011;35426;30.698;104.050;2024-02-26T09:54:14;79.80;;;40.80;;
17858;SDS011;35426;30.698;104.050;2024-02-26T09:56:49;74.90;;;39.93;;
17858;SDS011;35426;30.698;104.050;2024-02-26T09:59:33;68.90;;;37.77;;
17858;SDS011;35426;30.698;104.050;2024-02-26T10:02:09;73.73;;;37.37;;
17858;SDS011;35426;30.698;104.050;2024-02-26T10:04:45;69.17;;;37.97;;
17858;SDS011;35426;30.698;104.050;2024-02-26T10:07:22;73.17;;;39.37;;
17858;SDS011;35426;30.698;104.050;2024-02-26T10:09:56;72.97;;;38.07;;
17858;SDS011;35426;30.698;104.050;2024-02-26T10:12:29;73.87;;;38.00;;
17858;SDS011;35426;30.698;104.050;2024-02-26T10:15:04;67.20;;;36.63;;
17858;SDS011;35426;30.698;104.050;2024-02-26T10:17:39;65.77;;;34.70;;
17858;SDS011;35426;30.698;104.050;2024-02-26T10:20:13;59.23;;;34.03;;
17858;SDS011;35426;30.698;104.050;2024-02-26T10:22:51;59.80;;;34.13;;
17858;SDS011;35426;30.698;104.050;2024-02-26T10:25:30;62.37;;;34.90;;
17858;SDS011;35426;30.698;104.050;2024-02-26T10:28:04;62.53;;;36.03;;
17858;SDS011;35426;30.698;104.050;2024-02-26T10:30:38;67.57;;;35.93;;
17858;SDS011;35426;30.698;104.050;2024-02-26T10:33:13;65.50;;;34.07;;
17858;SDS011;35426;30.698;104.050;2024-02-26T10:35:47;67.90;;;35.80;;
17858;SDS011;35426;30.698;104.050;2024-02-26T10:38:24;66.60;;;35.93;;
17858;SDS011;35426;30.698;104.050;2024-02-26T10:40:58;62.37;;;34.63;;
17858;SDS011;35426;30.698;104.050;2024-02-26T10:43:33;67.73;;;35.57;;
17858;SDS011;35426;30.698;104.050;2024-02-26T10:46:07;66.33;;;36.20;;
17858;SDS011;35426;30.698;104.050;2024-02-26T10:48:40;65.40;;;34.77;;
17858;SDS011;35426;30.698;104.050;2024-02-26T10:51:25;69.10;;;36.63;;
17858;SDS011;35426;30.698;104.050;2024-02-26T10:54:01;70.63;;;36.40;;
17858;SDS011;35426;30.698;104.050;2024-02-26T10:56:37;69.80;;;35.30;;
17858;SDS011;35426;30.698;104.050;2024-02-26T10:59:13;71.47;;;36.97;;
17858;SDS011;35426;30.698;104.050;2024-02-26T11:01:49;69.93;;;37.10;;
17858;SDS011;35426;30.698;104.050;2024-02-26T11:04:23;68.13;;;37.50;;
17858;SDS011;35426;30.698;104.050;2024-02-26T11:06:59;70.27;;;39.20;;
17858;SDS011;35426;30.698;104.050;2024-02-26T11:09:39;81.00;;;39.00;;
17858;SDS011;35426;30.698;104.050;2024-02-26T11:12:15;67.50;;;37.13;;
17858;SDS011;35426;30.698;104.050;2024-02-26T11:14:50;68.83;;;36.63;;
17858;SDS011;35426;30.698;104.050;2024-02-26T11:17:27;67.50;;;36.57;;
17858;SDS011;35426;30.698;104.050;2024-02-26T11:20:06;73.57;;;37.17;;
17858;SDS011;35426;30.698;104.050;2024-02-26T11:22:47;67.43;;;36.90;;
17858;SDS011;35426;30.698;104.050;2024-02-26T11:25:24;66.87;;;36.13;;
17858;SDS011;35426;30.698;104.050;2024-02-26T11:27:58;67.97;;;36.33;;
17858;SDS011;35426;30.698;104.050;2024-02-26T11:30:34;70.30;;;36.97;;
17858;SDS011;35426;30.698;104.050;2024-02-26T11:33:10;66.57;;;37.17;;
17858;SDS011;35426;30.698;104.050;2024-02-26T11:35:44;69.17;;;36.73;;
17858;SDS011;35426;30.698;104.050;2024-02-26T11:38:19;77.77;;;38.60;;
17858;SDS011;35426;30.698;104.050;2024-02-26T11:40:58;69.77;;;36.83;;
17858;SDS011;35426;30.698;104.050;2024-02-26T11:46:26;68.27;;;37.13;;
17858;SDS011;35426;30.698;104.050;2024-02-26T11:52:06;71.37;;;38.07;;
17858;SDS011;35426;30.698;104.050;2024-02-26T11:54:47;73.77;;;38.00;;
17858;SDS011;35426;30.698;104.050;2024-02-26T11:57:27;72.67;;;38.73;;
17858;SDS011;35426;30.698;104.050;2024-02-26T12:00:10;76.70;;;39.23;;
17858;SDS011;35426;30.698;104.050;2024-02-26T12:02:46;75.83;;;39.30;;
17858;SDS011;35426;30.698;104.050;2024-02-26T12:05:21;74.27;;;39.17;;
17858;SDS011;35426;30.698;104.050;2024-02-26T12:07:59;84.80;;;41.87;;
17858;SDS011;35426;30.698;104.050;2024-02-26T12:10:37;92.73;;;44.47;;
17858;SDS011;35426;30.698;104.050;2024-02-26T12:13:16;92.60;;;46.40;;
17858;SDS011;35426;30.698;104.050;2024-02-26T12:15:55;92.00;;;45.37;;
17858;SDS011;35426;30.698;104.050;2024-02-26T12:18:29;85.10;;;42.73;;
17858;SDS011;35426;30.698;104.050;2024-02-26T12:21:03;87.03;;;46.13;;
17858;SDS011;35426;30.698;104.050;2024-02-26T12:23:41;93.03;;;44.37;;
17858;SDS011;35426;30.698;104.050;2024-02-26T12:26:15;83.87;;;42.17;;
17858;SDS011;35426;30.698;104.050;2024-02-26T12:28:51;81.80;;;41.87;;
17858;SDS011;35426;30.698;104.050;2024-02-26T12:31:24;89.07;;;44.63;;
17858;SDS011;35426;30.698;104.050;2024-02-26T12:33:58;88.33;;;42.80;;
17858;SDS011;35426;30.698;104.050;2024-02-26T12:36:32;78.53;;;42.83;;
17858;SDS011;35426;30.698;104.050;2024-02-26T12:39:07;76.23;;;39.30;;
17858;SDS011;35426;30.698;104.050;2024-02-26T12:41:41;75.07;;;39.20;;
17858;SDS011;35426;30.698;104.050;2024-02-26T12:44:27;75.57;;;39.50;;
17858;SDS011;35426;30.698;104.050;2024-02-26T12:47:01;67.50;;;35.60;;
17858;SDS011;35426;30.698;104.050;2024-02-26T12:49:36;69.93;;;36.23;;
17858;SDS011;35426;30.698;104.050;2024-02-26T12:52:10;72.73;;;36.53;;
17858;SDS011;35426;30.698;104.050;2024-02-26T12:54:44;77.70;;;35.47;;
17858;SDS011;35426;30.698;104.050;2024-02-26T12:57:19;65.17;;;33.63;;
17858;SDS011;35426;30.698;104.050;2024-02-26T12:59:55;70.97;;;35.37;;
17858;SDS011;35426;30.698;104.050;2024-02-26T13:02:30;68.50;;;34.50;;
17858;SDS011;35426;30.698;104.050;2024-02-26T13:05:05;70.80;;;34.73;;
17858;SDS011;35426;30.698;104.050;2024-02-26T13:07:53;70.90;;;33.77;;
17858;SDS011;35426;30.698;104.050;2024-02-26T13:10:27;64.17;;;33.43;;
17858;SDS011;35426;30.698;104.050;2024-02-26T13:13:01;69.70;;;32.97;;
17858;SDS011;35426;30.698;104.050;2024-02-26T13:15:37;65.43;;;33.17;;
17858;SDS011;35426;30.698;104.050;2024-02-26T13:18:11;68.13;;;35.43;;
17858;SDS011;35426;30.698;104.050;2024-02-26T13:20:45;62.83;;;34.13;;
17858;SDS011;35426;30.698;104.050;2024-02-26T13:23:19;76.93;;;35.33;;
17858;SDS011;35426;30.698;104.050;2024-02-26T13:25:56;68.60;;;35.10;;
17858;SDS011;35426;30.698;104.050;2024-02-26T13:28:31;69.17;;;35.53;;
17858;SDS011;35426;30.698;104.050;2024-02-26T13:31:07;64.53;;;33.50;;
17858;SDS011;35426;30.698;104.050;2024-02-26T13:33:41;62.23;;;32.93;;
17858;SDS011;35426;30.698;104.050;2024-02-26T13:36:15;65.77;;;34.50;;
17858;SDS011;35426;30.698;104.050;2024-02-26T13:38:51;66.23;;;33.17;;
17858;SDS011;35426;30.698;104.050;2024-02-26T13:41:26;76.83;;;36.43;;
17858;SDS011;35426;30.698;104.050;2024-02-26T13:44:01;67.97;;;34.77;;
17858;SDS011;35426;30.698;104.050;2024-02-26T13:46:37;69.20;;;35.20;;
17858;SDS011;35426;30.698;104.050;2024-02-26T13:49:10;65.70;;;33.60;;
17858;SDS011;35426;30.698;104.050;2024-02-26T13:51:45;65.87;;;32.53;;
17858;SDS011;35426;30.698;104.050;2024-02-26T13:54:20;60.30;;;33.47;;
17858;SDS011;35426;30.698;104.050;2024-02-26T13:56:54;68.73;;;34.73;;
17858;SDS011;35426;30.698;104.050;2024-02-26T13:59:28;70.90;;;35.20;;
17858;SDS011;35426;30.698;104.050;2024-02-26T14:02:04;62.87;;;33.90;;
17858;SDS011;35426;30.698;104.050;2024-02-26T14:04:42;64.47;;;33.83;;
17858;SDS011;35426;30.698;104.050;2024-02-26T14:07:16;75.50;;;35.73;;
17858;SDS011;35426;30.698;104.050;2024-02-26T14:09:50;65.23;;;33.70;;
17858;SDS011;35426;30.698;104.050;2024-02-26T14:12:23;66.53;;;34.80;;
17858;SDS011;35426;30.698;104.050;2024-02-26T14:14:57;70.93;;;36.07;;
17858;SDS011;35426;30.698;104.050;2024-02-26T14:17:36;60.47;;;33.73;;
17858;SDS011;35426;30.698;104.050;2024-02-26T14:20:10;65.27;;;33.70;;
17858;SDS011;35426;30.698;104.050;2024-02-26T14:22:43;63.40;;;34.40;;
17858;SDS011;35426;30.698;104.050;2024-02-26T14:25:17;67.40;;;33.93;;
17858;SDS011;35426;30.698;104.050;2024-02-26T14:27:56;59.00;;;32.40;;
17858;SDS011;35426;30.698;104.050;2024-02-26T14:30:30;55.83;;;30.13;;
17858;SDS011;35426;30.698;104.050;2024-02-26T14:33:06;60.13;;;31.47;;
17858;SDS011;35426;30.698;104.050;2024-02-26T14:35:41;60.47;;;31.90;;
17858;SDS011;35426;30.698;104.050;2024-02-26T14:38:15;57.03;;;29.87;;
17858;SDS011;35426;30.698;104.050;2024-02-26T14:40:49;56.67;;;29.57;;
17858;SDS011;35426;30.698;104.050;2024-02-26T14:43:23;57.90;;;29.03;;
17858;SDS011;35426;30.698;104.050;2024-02-26T14:45:57;49.13;;;27.63;;